Time;durP1;ratioP1;P1;durP2;ratioP2;P2;SDS_P1;SDS_P2;PMS_P1;PMS_P2;Temp;Humidity;BMP_temperature;BMP_pressure;BME280_temperature;BME280_humidity;BME280_pressure;Samples;Min_cycle;Max_cycle;Signal;HPM_P1;HPM_P2
2021/08/24 00:00:03;;;;;;;;;;;;;;;21.53;76.57;102764.75;7279660;19;153067;-56
2021/08/24 00:02:30;;;;;;;;;;;;;;;21.53;76.66;102762.75;7281328;19;153502;-56
2021/08/24 00:04:57;;;;;;;;;;;;;;;21.53;76.66;102756.31;7284321;19;151777;-56
2021/08/24 00:07:24;;;;;;;;;;;;;;;21.55;76.36;102756.88;7288518;19;153166;-56
2021/08/24 00:09:51;;;;;;;;;;;;;;;21.55;76.56;102763.34;7285142;19;152862;-57
2021/08/24 00:12:18;;;;;;;;;;;;;;;21.55;76.55;102760.53;7284702;19;152506;-56
2021/08/24 00:14:45;;;;;;;;;;;;;;;21.56;76.49;102770.69;7280012;19;154221;-56
2021/08/24 00:17:12;;;;;;;;;;;;;;;21.55;76.57;102762.50;7283772;19;152290;-57
2021/08/24 00:19:39;;;;;;;;;;;;;;;21.56;77.22;102765.06;7283086;19;152958;-56
2021/08/24 00:22:06;;;;;;;;;;;;;;;21.59;76.81;102761.69;7277145;19;153956;-57
2021/08/24 00:24:33;;;;;;;;;;;;;;;21.58;76.82;102771.25;7281982;19;152490;-56
2021/08/24 00:27:00;;;;;;;;;;;;;;;21.56;76.70;102770.69;7281333;19;152531;-56
2021/08/24 00:29:27;;;;;;;;;;;;;;;21.57;77.13;102763.94;7289652;19;153813;-56
2021/08/24 00:31:54;;;;;;;;;;;;;;;21.58;77.08;102765.59;7283279;19;152585;-56
2021/08/24 00:34:21;;;;;;;;;;;;;;;21.60;77.12;102765.34;7279900;19;154054;-56
2021/08/24 00:36:48;;;;;;;;;;;;;;;21.60;77.25;102768.16;7282936;19;152562;-55
2021/08/24 00:39:15;;;;;;;;;;;;;;;21.60;77.62;102759.72;7281960;19;153402;-55
2021/08/24 00:41:42;;;;;;;;;;;;;;;21.60;77.30;102770.97;7283011;19;153696;-56
2021/08/24 00:44:09;;;;;;;;;;;;;;;21.62;77.75;102765.94;7282906;19;151909;-55
2021/08/24 00:46:39;;;;;;;;;;;;;;;21.63;77.45;102761.97;7279185;19;153704;-55
2021/08/24 00:49:10;;;;;;;;;;;;;;;21.62;77.77;102763.13;7280914;19;153258;-56
2021/08/24 00:51:38;;;;;;;;;;;;;;;21.63;77.57;102768.47;7287159;19;155100;-55
2021/08/24 00:54:06;;;;;;;;;;;;;;;21.65;77.95;102769.06;7277558;19;154270;-56
2021/08/24 00:56:33;;;;;;;;;;;;;;;21.66;77.70;102772.72;7278770;19;153278;-55
2021/08/24 00:59:01;;;;;;;;;;;;;;;21.65;77.94;102763.44;7279383;19;152533;-56
2021/08/24 01:01:28;;;;;;;;;;;;;;;21.67;78.00;102772.41;7278832;19;154548;-55
2021/08/24 01:03:55;;;;;;;;;;;;;;;21.66;77.84;102762.31;7278215;19;152402;-56
2021/08/24 01:06:25;;;;;;;;;;;;;;;21.66;77.99;102767.94;7281343;19;152588;-56
2021/08/24 01:08:53;;;;;;;;;;;;;;;21.67;77.66;102763.13;7279041;19;153767;-55
2021/08/24 01:11:23;;;;;;;;;;;;;;;21.67;77.55;102766.78;7288464;19;151666;-55
2021/08/24 01:13:51;;;;;;;;;;;;;;;21.68;77.93;102765.69;7276144;19;153240;-55
2021/08/24 01:16:21;;;;;;;;;;;;;;;21.68;78.13;102768.50;7283087;19;152372;-56
2021/08/24 01:18:51;;;;;;;;;;;;;;;21.69;77.91;102766.53;7280947;19;152662;-56
2021/08/24 01:21:19;;;;;;;;;;;;;;;21.70;77.96;102766.28;7280186;19;153797;-55
2021/08/24 01:23:46;;;;;;;;;;;;;;;21.70;78.19;102769.09;7274858;19;152463;-55
2021/08/24 01:26:14;;;;;;;;;;;;;;;21.69;77.91;102763.72;7275843;19;153135;-55
2021/08/24 01:28:50;;;;;;;;;;;;;;;21.69;78.32;102764.56;7282221;19;153921;-56
2021/08/24 01:31:20;;;;;;;;;;;;;;;21.71;78.18;102762.31;7280776;19;151823;-55
2021/08/24 01:33:50;;;;;;;;;;;;;;;21.69;77.99;102760.91;7284870;19;151938;-54
2021/08/24 01:36:20;;;;;;;;;;;;;;;21.70;78.03;102759.78;7280880;19;151788;-55
2021/08/24 01:38:49;;;;;;;;;;;;;;;21.68;77.93;102754.44;7286370;19;153096;-55
2021/08/24 01:41:19;;;;;;;;;;;;;;;21.70;78.32;102759.78;7284389;19;153355;-56
2021/08/24 01:43:48;;;;;;;;;;;;;;;21.70;78.42;102754.16;7287725;19;152126;-55
2021/08/24 01:46:20;;;;;;;;;;;;;;;21.71;78.03;102759.50;7289881;19;152778;-55
2021/08/24 01:48:51;;;;;;;;;;;;;;;21.70;78.51;102751.34;7284409;19;154495;-55
2021/08/24 01:51:20;;;;;;;;;;;;;;;21.70;78.19;102752.22;7285692;19;152180;-56
2021/08/24 01:53:50;;;;;;;;;;;;;;;21.71;78.30;102750.25;7283234;19;153291;-56
2021/08/24 01:56:20;;;;;;;;;;;;;;;21.73;78.14;102747.97;7294496;19;153707;-55
2021/08/24 01:58:48;;;;;;;;;;;;;;;21.73;78.26;102753.63;7285479;19;152430;-55
2021/08/24 02:01:17;;;;;;;;;;;;;;;21.73;78.27;102747.97;7289378;19;153411;-55
2021/08/24 02:03:48;;;;;;;;;;;;;;;21.72;78.63;102743.47;7285654;19;151702;-55
2021/08/24 02:06:15;;;;;;;;;;;;;;;21.73;78.27;102751.66;7287123;19;151908;-55
2021/08/24 02:08:46;;;;;;;;;;;;;;;21.71;78.56;102748.25;7288199;19;153646;-54
2021/08/24 02:11:13;;;;;;;;;;;;;;;21.72;78.25;102747.13;7286125;19;152579;-55
2021/08/24 02:13:41;;;;;;;;;;;;;;;21.72;78.22;102746.28;7286517;19;153121;-56
2021/08/24 02:16:10;;;;;;;;;;;;;;;21.74;78.42;102749.69;7284509;19;153815;-56
2021/08/24 02:18:40;;;;;;;;;;;;;;;21.76;78.71;102758.69;7292308;19;152509;-55
2021/08/24 02:21:10;;;;;;;;;;;;;;;21.75;78.70;102757.00;7287916;19;153931;-55
2021/08/24 02:23:37;;;;;;;;;;;;;;;21.73;78.49;102754.47;7284844;19;153532;-56
2021/08/24 02:26:06;;;;;;;;;;;;;;;21.76;78.72;102752.25;7289025;19;153639;-55
2021/08/24 02:28:36;;;;;;;;;;;;;;;21.77;78.60;102753.91;7287812;19;153212;-56
2021/08/24 02:31:08;;;;;;;;;;;;;;;21.76;78.45;102755.88;7284515;19;151856;-55
2021/08/24 02:33:38;;;;;;;;;;;;;;;21.76;78.68;102760.69;7284892;19;152610;-55
2021/08/24 02:36:07;;;;;;;;;;;;;;;21.74;78.32;102761.78;7286137;19;154106;-55
2021/08/24 02:38:36;;;;;;;;;;;;;;;21.74;78.54;102767.41;7286742;19;153215;-55
2021/08/24 02:41:06;;;;;;;;;;;;;;;21.75;78.41;102759.81;7290538;19;152612;-54
2021/08/24 02:43:33;;;;;;;;;;;;;;;21.74;78.86;102766.56;7284637;19;152172;-56
2021/08/24 02:46:03;;;;;;;;;;;;;;;21.76;78.91;102769.13;7287097;19;153850;-56
2021/08/24 02:48:32;;;;;;;;;;;;;;;21.76;78.72;102764.31;7287154;19;153393;-56
2021/08/24 02:50:59;;;;;;;;;;;;;;;21.74;78.61;102767.41;7281715;19;152168;-55
2021/08/24 02:53:26;;;;;;;;;;;;;;;21.74;78.74;102773.03;7286973;19;153424;-56
2021/08/24 02:55:53;;;;;;;;;;;;;;;21.76;78.54;102769.94;7283323;19;153287;-54
2021/08/24 02:58:20;;;;;;;;;;;;;;;21.75;78.79;102765.47;7284807;19;156552;-56
2021/08/24 03:00:47;;;;;;;;;;;;;;;21.77;78.63;102762.34;7285116;19;152567;-55
2021/08/24 03:03:15;;;;;;;;;;;;;;;21.74;78.93;102761.78;7290588;19;153834;-55
2021/08/24 03:05:43;;;;;;;;;;;;;;;21.74;78.62;102763.75;7286432;19;152996;-55
2021/08/24 03:08:10;;;;;;;;;;;;;;;21.74;78.82;102773.03;7285152;19;153314;-56
2021/08/24 03:10:39;;;;;;;;;;;;;;;21.76;78.75;102767.13;7286305;19;152246;-56
2021/08/24 03:13:11;;;;;;;;;;;;;;;21.76;78.98;102769.13;7281284;19;151958;-56
2021/08/24 03:15:44;;;;;;;;;;;;;;;21.74;78.93;102767.41;7282782;19;154125;-56
2021/08/24 03:18:14;;;;;;;;;;;;;;;21.77;78.78;102771.63;7283618;19;152436;-56
2021/08/24 03:20:43;;;;;;;;;;;;;;;21.74;78.79;102766.56;7283377;19;153211;-56
2021/08/24 03:23:11;;;;;;;;;;;;;;;21.76;78.80;102771.94;7293512;19;154362;-56
2021/08/24 03:25:41;;;;;;;;;;;;;;;21.74;78.54;102773.03;7286702;19;153077;-55
2021/08/24 03:28:11;;;;;;;;;;;;;;;21.74;78.63;102773.03;7283313;19;154132;-57
2021/08/24 03:30:38;;;;;;;;;;;;;;;21.73;78.78;102778.94;7283146;19;154027;-55
2021/08/24 03:33:05;;;;;;;;;;;;;;;21.72;79.10;102775.28;7287489;19;152972;-56
2021/08/24 03:35:32;;;;;;;;;;;;;;;21.74;79.18;102770.22;7283310;19;153991;-55
2021/08/24 03:37:59;;;;;;;;;;;;;;;21.73;78.89;102765.72;7286738;19;152143;-56
2021/08/24 03:40:26;;;;;;;;;;;;;;;21.74;78.96;102770.22;7285094;19;153386;-55
2021/08/24 03:42:55;;;;;;;;;;;;;;;21.73;79.13;102760.09;7282019;19;153666;-56
2021/08/24 03:45:22;;;;;;;;;;;;;;;21.74;79.45;102758.97;7292864;19;151913;-55
2021/08/24 03:47:49;;;;;;;;;;;;;;;21.77;79.21;102759.53;7283589;19;153281;-55
2021/08/24 03:50:17;;;;;;;;;;;;;;;21.78;79.24;102762.09;7285235;19;151578;-55
2021/08/24 03:52:44;;;;;;;;;;;;;;;21.77;79.47;102770.78;7282065;19;153026;-56
2021/08/24 03:55:11;;;;;;;;;;;;;;;21.77;79.34;102766.00;7282082;19;153643;-55
2021/08/24 03:57:38;;;;;;;;;;;;;;;21.78;79.67;102767.72;7283554;19;154093;-56
2021/08/24 04:00:06;;;;;;;;;;;;;;;21.78;79.70;102764.06;7282973;19;152308;-55
2021/08/24 04:02:33;;;;;;;;;;;;;;;21.78;79.52;102764.91;7284196;19;153797;-56
2021/08/24 04:05:02;;;;;;;;;;;;;;;21.78;79.34;102764.91;7285415;19;151809;-55
2021/08/24 04:07:30;;;;;;;;;;;;;;;21.77;79.70;102766.00;7291662;19;152619;-55
2021/08/24 04:09:57;;;;;;;;;;;;;;;21.78;79.69;102764.06;7284305;19;152074;-56
2021/08/24 04:12:24;;;;;;;;;;;;;;;21.76;79.67;102761.50;7284683;19;153801;-56
2021/08/24 04:14:51;;;;;;;;;;;;;;;21.78;79.38;102758.41;7277194;19;152217;-56
2021/08/24 04:17:18;;;;;;;;;;;;;;;21.77;79.80;102763.19;7286120;19;151771;-55
2021/08/24 04:19:45;;;;;;;;;;;;;;;21.77;79.48;102757.56;7285058;19;152525;-55
2021/08/24 04:22:16;;;;;;;;;;;;;;;21.76;79.77;102752.25;7282534;19;152600;-55
2021/08/24 04:24:43;;;;;;;;;;;;;;;21.77;79.64;102749.13;7282204;19;151836;-56
2021/08/24 04:27:10;;;;;;;;;;;;;;;21.76;79.65;102750.25;7284557;19;152585;-55
2021/08/24 04:29:38;;;;;;;;;;;;;;;21.76;79.63;102758.69;7291188;19;153550;-55
2021/08/24 04:32:05;;;;;;;;;;;;;;;21.76;79.45;102758.69;7284884;19;153286;-55
2021/08/24 04:34:33;;;;;;;;;;;;;;;21.75;79.35;102754.19;7280357;19;154765;-55
2021/08/24 04:37:00;;;;;;;;;;;;;;;21.77;79.46;102756.72;7282988;19;152130;-55
2021/08/24 04:39:27;;;;;;;;;;;;;;;21.75;79.24;102754.19;7281110;19;154482;-56
2021/08/24 04:41:54;;;;;;;;;;;;;;;21.77;79.48;102762.34;7283134;19;154553;-56
2021/08/24 04:44:21;;;;;;;;;;;;;;;21.74;79.28;102767.41;7280728;19;152201;-55
2021/08/24 04:46:48;;;;;;;;;;;;;;;21.77;79.74;102765.16;7283747;19;153284;-55
2021/08/24 04:49:15;;;;;;;;;;;;;;;21.76;79.21;102757.88;7282040;19;152407;-55
2021/08/24 04:51:42;;;;;;;;;;;;;;;21.76;79.03;102769.13;7287203;19;152851;-55
2021/08/24 04:54:09;;;;;;;;;;;;;;;21.72;79.61;102764.00;7280900;19;153351;-56
2021/08/24 04:56:36;;;;;;;;;;;;;;;21.74;79.53;102766.56;7282914;19;152378;-55
2021/08/24 04:59:03;;;;;;;;;;;;;;;21.74;79.11;102761.78;7282701;19;152703;-55
2021/08/24 05:01:30;;;;;;;;;;;;;;;21.73;79.61;102756.44;7281363;19;154232;-55
2021/08/24 05:03:57;;;;;;;;;;;;;;;21.72;79.29;102760.34;7281994;19;152047;-55
2021/08/24 05:06:38;;;;;;;;;;;;;;;21.73;79.22;102765.72;7277767;19;152073;-55
2021/08/24 05:09:04;;;;;;;;;;;;;;;21.73;79.27;102764.88;7282301;19;152748;-55
2021/08/24 05:11:31;;;;;;;;;;;;;;;21.72;79.74;102764.00;7282556;19;151986;-56
2021/08/24 05:13:58;;;;;;;;;;;;;;;21.75;79.70;102762.66;7288282;19;153071;-55
2021/08/24 05:16:25;;;;;;;;;;;;;;;21.73;79.19;102764.88;7290713;19;152798;-55
2021/08/24 05:18:52;;;;;;;;;;;;;;;21.73;79.33;102767.69;7290210;19;152640;-55
2021/08/24 05:21:20;;;;;;;;;;;;;;;21.73;79.70;102762.06;7289613;19;153226;-55
2021/08/24 05:23:47;;;;;;;;;;;;;;;21.73;79.33;102764.88;7286190;19;152304;-55
2021/08/24 05:26:16;;;;;;;;;;;;;;;21.72;79.23;102758.38;7289262;19;153555;-55
2021/08/24 05:28:43;;;;;;;;;;;;;;;21.73;79.57;102760.09;7284810;19;153971;-56
2021/08/24 05:31:10;;;;;;;;;;;;;;;21.72;79.29;102765.97;7289096;19;152150;-55
2021/08/24 05:33:41;;;;;;;;;;;;;;;21.73;79.30;102770.50;7295377;19;152894;-55
2021/08/24 05:36:11;;;;;;;;;;;;;;;21.73;79.49;102756.44;7285142;19;151935;-56
2021/08/24 05:38:38;;;;;;;;;;;;;;;21.73;79.11;102770.50;7287184;19;152689;-55
2021/08/24 05:41:06;;;;;;;;;;;;;;;21.71;79.08;102767.13;7287036;19;154019;-55
2021/08/24 05:43:33;;;;;;;;;;;;;;;21.70;79.50;102763.47;7288178;19;152042;-56
2021/08/24 05:46:02;;;;;;;;;;;;;;;21.71;79.37;102770.75;7285406;19;153135;-55
2021/08/24 05:48:30;;;;;;;;;;;;;;;21.73;79.63;102767.69;7285898;19;152432;-55
2021/08/24 05:50:57;;;;;;;;;;;;;;;21.72;79.45;102764.00;7288803;19;153647;-55
2021/08/24 05:53:25;;;;;;;;;;;;;;;21.71;79.15;102762.31;7287458;19;153111;-55
2021/08/24 05:55:52;;;;;;;;;;;;;;;21.71;79.48;102772.75;7293903;19;153484;-56
2021/08/24 05:58:19;;;;;;;;;;;;;;;21.70;79.44;102763.47;7289545;19;152278;-55
2021/08/24 06:00:46;;;;;;;;;;;;;;;21.71;78.93;102770.75;7286801;19;153493;-56
2021/08/24 06:03:14;;;;;;;;;;;;;;;21.71;78.80;102769.94;7288770;19;152306;-55
2021/08/24 06:05:41;;;;;;;;;;;;;;;21.73;79.43;102774.16;7288154;19;152667;-56
2021/08/24 06:08:09;;;;;;;;;;;;;;;21.74;78.86;102769.38;7286071;19;153372;-56
2021/08/24 06:10:37;;;;;;;;;;;;;;;21.72;79.21;102772.47;7289081;19;151935;-56
2021/08/24 06:13:04;;;;;;;;;;;;;;;21.73;79.39;102770.50;7287023;19;153027;-55
2021/08/24 06:15:32;;;;;;;;;;;;;;;21.71;79.39;102775.56;7281921;19;153865;-55
2021/08/24 06:17:59;;;;;;;;;;;;;;;21.70;79.42;102777.53;7292404;19;152474;-56
2021/08/24 06:20:27;;;;;;;;;;;;;;;21.71;79.44;102784.81;7287729;19;153960;-55
2021/08/24 06:22:54;;;;;;;;;;;;;;;21.71;79.47;102784.81;7286367;19;151958;-55
2021/08/24 06:25:22;;;;;;;;;;;;;;;21.70;79.08;102794.41;7286877;19;152501;-56
2021/08/24 06:27:50;;;;;;;;;;;;;;;21.70;79.29;102791.59;7287454;19;153969;-55
2021/08/24 06:30:18;;;;;;;;;;;;;;;21.69;79.32;102787.06;7286389;19;151925;-56
2021/08/24 06:32:47;;;;;;;;;;;;;;;21.69;79.63;102784.25;7287800;19;152452;-56
2021/08/24 06:35:14;;;;;;;;;;;;;;;21.69;79.74;102792.72;7285756;19;154142;-55
2021/08/24 06:37:41;;;;;;;;;;;;;;;21.69;79.72;102806.78;7288540;19;152104;-56
2021/08/24 06:40:09;;;;;;;;;;;;;;;21.67;80.00;102800.56;7294177;19;152754;-56
2021/08/24 06:42:39;;;;;;;;;;;;;;;21.70;79.53;102794.41;7285551;19;152001;-55
2021/08/24 06:45:07;;;;;;;;;;;;;;;21.69;79.93;102801.16;7286760;19;153503;-55
2021/08/24 06:47:34;;;;;;;;;;;;;;;21.68;79.87;102802.25;7286509;19;153436;-55
2021/08/24 06:50:01;;;;;;;;;;;;;;;21.68;80.11;102804.22;7288139;19;152275;-54
2021/08/24 06:52:29;;;;;;;;;;;;;;;21.69;79.81;102800.28;7282253;19;153376;-55
2021/08/24 06:54:56;;;;;;;;;;;;;;;21.67;80.18;102805.31;7285175;19;154111;-56
2021/08/24 06:57:23;;;;;;;;;;;;;;;21.68;80.05;102798.59;7285414;19;152405;-56
2021/08/24 06:59:50;;;;;;;;;;;;;;;21.64;80.00;102803.91;7284665;19;152433;-56
2021/08/24 07:02:17;;;;;;;;;;;;;;;21.66;80.34;102804.50;7291031;19;154068;-55
2021/08/24 07:04:48;;;;;;;;;;;;;;;21.68;80.31;102807.88;7285509;19;152732;-56
2021/08/24 07:07:15;;;;;;;;;;;;;;;21.68;80.36;102804.22;7284635;19;153798;-55
2021/08/24 07:09:42;;;;;;;;;;;;;;;21.68;80.05;102807.88;7284860;19;151963;-56
2021/08/24 07:12:09;;;;;;;;;;;;;;;21.68;79.75;102802.25;7286357;19;153219;-56
2021/08/24 07:14:37;;;;;;;;;;;;;;;21.68;80.37;102805.06;7282560;19;154006;-56
2021/08/24 07:17:04;;;;;;;;;;;;;;;21.68;80.07;102807.03;7284597;19;152287;-56
2021/08/24 07:19:31;;;;;;;;;;;;;;;21.68;80.01;102812.66;7284904;19;152647;-55
2021/08/24 07:21:58;;;;;;;;;;;;;;;21.66;79.88;102807.31;7285465;19;153298;-55
2021/08/24 07:24:25;;;;;;;;;;;;;;;21.67;79.92;102808.13;7291450;19;152012;-56
2021/08/24 07:26:52;;;;;;;;;;;;;;;21.65;80.19;102811.25;7285522;19;153462;-55
2021/08/24 07:29:19;;;;;;;;;;;;;;;21.67;80.22;102820.25;7284012;19;154396;-55
2021/08/24 07:31:46;;;;;;;;;;;;;;;21.65;80.43;102819.69;7283952;19;153305;-56
2021/08/24 07:34:14;;;;;;;;;;;;;;;21.67;80.50;102817.44;7285362;19;153334;-54
2021/08/24 07:36:41;;;;;;;;;;;;;;;21.67;80.08;102816.59;7278915;19;151872;-55
2021/08/24 07:39:08;;;;;;;;;;;;;;;21.68;80.43;102827.56;7285271;19;153590;-56
2021/08/24 07:41:35;;;;;;;;;;;;;;;21.66;80.32;102821.41;7285429;19;154887;-56
2021/08/24 07:44:03;;;;;;;;;;;;;;;21.67;80.71;102830.66;7290345;19;152431;-56
2021/08/24 07:46:30;;;;;;;;;;;;;;;21.69;80.44;102829.28;7285671;19;154153;-55
2021/08/24 07:48:57;;;;;;;;;;;;;;;21.67;80.78;102825.88;7284409;19;151581;-55
2021/08/24 07:51:24;;;;;;;;;;;;;;;21.68;80.61;102830.38;7284511;19;152594;-55
2021/08/24 07:53:52;;;;;;;;;;;;;;;21.67;80.51;102825.88;7282616;19;153405;-56
2021/08/24 07:56:21;;;;;;;;;;;;;;;21.69;80.48;102832.09;7281927;19;151864;-55
2021/08/24 07:58:48;;;;;;;;;;;;;;;21.67;80.29;102833.47;7282670;19;153096;-56
2021/08/24 08:01:16;;;;;;;;;;;;;;;21.67;80.07;102828.69;7283779;19;153331;-57
2021/08/24 08:03:43;;;;;;;;;;;;;;;21.67;80.11;102831.50;7285418;19;152042;-56
2021/08/24 08:06:10;;;;;;;;;;;;;;;21.65;80.31;102833.75;7290772;19;157471;-56
2021/08/24 08:08:37;;;;;;;;;;;;;;;21.66;80.08;102831.78;7283161;19;152085;-56
2021/08/24 08:11:04;;;;;;;;;;;;;;;21.66;80.17;102826.16;7284974;19;154021;-56
2021/08/24 08:13:31;;;;;;;;;;;;;;;21.68;80.00;102827.56;7284462;19;153354;-57
2021/08/24 08:15:59;;;;;;;;;;;;;;;21.65;79.60;102821.66;7282205;19;152015;-57
2021/08/24 08:18:26;;;;;;;;;;;;;;;21.68;79.19;102826.72;7282764;19;153880;-57
2021/08/24 08:20:53;;;;;;;;;;;;;;;21.62;79.25;102820.22;7281265;19;154131;-56
2021/08/24 08:23:21;;;;;;;;;;;;;;;21.62;78.63;102819.38;7285458;19;151566;-57
2021/08/24 08:25:48;;;;;;;;;;;;;;;21.60;78.63;102828.09;7282179;19;156093;-56
2021/08/24 08:28:15;;;;;;;;;;;;;;;21.61;78.44;102823.31;7289150;19;153256;-57
2021/08/24 08:30:43;;;;;;;;;;;;;;;21.67;78.69;102820.25;7283982;19;152759;-57
2021/08/24 08:33:10;;;;;;;;;;;;;;;21.59;76.30;102820.75;7280259;19;153491;-57
2021/08/24 08:35:38;;;;;;;;;;;;;;;21.55;75.18;102818.75;7283281;19;151852;-57
2021/08/24 08:38:05;;;;;;;;;;;;;;;21.52;75.21;102813.69;7282675;19;152681;-57
2021/08/24 08:40:35;;;;;;;;;;;;;;;21.51;74.90;102818.44;7282602;19;154328;-57
2021/08/24 08:43:22;;;;;;;;;;;;;;;21.48;74.96;102829.41;7283309;19;152057;-56
2021/08/24 08:45:51;;;;;;;;;;;;;;;21.44;74.54;102823.44;7282494;19;151762;-57
2021/08/24 08:48:18;;;;;;;;;;;;;;;21.41;74.39;102825.94;7282240;19;153685;-56
2021/08/24 08:50:49;;;;;;;;;;;;;;;21.41;74.63;102829.63;7290949;19;151661;-57
2021/08/24 08:53:18;;;;;;;;;;;;;;;21.42;74.60;102822.88;7281675;19;153336;-56
2021/08/24 08:55:50;;;;;;;;;;;;;;;21.36;74.20;102823.09;7282390;19;152118;-56
2021/08/24 08:58:21;;;;;;;;;;;;;;;21.36;74.82;102818.31;7282953;19;152747;-57
2021/08/24 09:00:50;;;;;;;;;;;;;;;21.36;74.67;102825.91;7282228;19;153398;-57
2021/08/24 09:03:22;;;;;;;;;;;;;;;21.36;75.05;102820.28;7270204;19;152337;-57
2021/08/24 09:05:49;;;;;;;;;;;;;;;21.34;74.72;102816.91;7265977;19;154003;-57
2021/08/24 09:08:23;;;;;;;;;;;;;;;21.36;74.87;102820.28;7282837;19;153404;-57
2021/08/24 09:10:52;;;;;;;;;;;;;;;21.34;75.06;102817.75;7281760;19;152573;-57
2021/08/24 09:13:19;;;;;;;;;;;;;;;21.33;75.15;102821.69;7286705;19;153484;-57
2021/08/24 09:15:50;;;;;;;;;;;;;;;21.30;75.48;102823.06;7280609;19;152567;-56
2021/08/24 09:18:21;;;;;;;;;;;;;;;21.34;75.37;102820.56;7282489;19;153259;-57
2021/08/24 09:20:59;;;;;;;;;;;;;;;21.32;75.32;102825.59;7282838;19;153894;-57
2021/08/24 09:23:26;;;;;;;;;;;;;;;21.37;75.73;102827.59;7281936;19;153247;-56
2021/08/24 09:25:56;;;;;;;;;;;;;;;21.38;75.90;102820.88;7282241;19;154154;-57
2021/08/24 09:28:25;;;;;;;;;;;;;;;21.37;75.75;102825.66;7280342;19;153212;-57
2021/08/24 09:30:53;;;;;;;;;;;;;;;21.41;75.76;102821.19;7281754;19;151957;-57
2021/08/24 09:33:21;;;;;;;;;;;;;;;21.39;75.65;102826.25;7281754;19;153691;-57
2021/08/24 09:35:48;;;;;;;;;;;;;;;21.39;75.54;102823.44;7287443;19;151735;-57
2021/08/24 09:38:17;;;;;;;;;;;;;;;21.40;75.65;102821.44;7281331;19;153405;-57
2021/08/24 09:40:46;;;;;;;;;;;;;;;21.42;75.98;102817.25;7277766;19;154069;-56
2021/08/24 09:43:22;;;;;;;;;;;;;;;21.42;75.93;102820.06;7275729;19;151934;-57
2021/08/24 09:45:52;;;;;;;;;;;;;;;21.42;75.85;102822.88;7282402;19;153557;-57
2021/08/24 09:48:19;;;;;;;;;;;;;;;21.46;75.98;102809.97;7277312;19;154708;-56
2021/08/24 09:50:46;;;;;;;;;;;;;;;21.49;75.92;102812.25;7282237;19;153116;-58
2021/08/24 09:53:24;;;;;;;;;;;;;;;21.50;75.90;102811.13;7282326;19;153557;-57
2021/08/24 09:55:52;;;;;;;;;;;;;;;21.50;76.05;102815.91;7288282;19;152684;-56
2021/08/24 09:58:27;;;;;;;;;;;;;;;21.52;76.03;102816.50;7279436;19;154026;-57
2021/08/24 10:00:56;;;;;;;;;;;;;;;21.52;76.11;102810.88;7286028;19;154241;-56
2021/08/24 10:03:26;;;;;;;;;;;;;;;22.01;78.06;102812.34;7282326;19;152839;-50
2021/08/24 10:06:01;;;;;;;;;;;;;;;21.59;75.64;102805.84;7280745;19;152198;-49
2021/08/24 10:08:30;;;;;;;;;;;;;;;21.43;76.04;102802.09;7286595;19;153670;-49
2021/08/24 10:11:00;;;;;;;;;;;;;;;21.38;76.60;102801.19;7286759;19;152144;-49
2021/08/24 10:13:30;;;;;;;;;;;;;;;21.37;76.34;102807.94;7286547;19;153346;-48
2021/08/24 10:16:00;;;;;;;;;;;;;;;21.36;76.14;102807.06;7288168;19;153455;-49
2021/08/24 10:18:30;;;;;;;;;;;;;;;21.35;76.64;102802.56;7293610;19;152085;-49
2021/08/24 10:21:00;;;;;;;;;;;;;;;21.40;76.24;102796.97;7284209;19;154223;-49
2021/08/24 10:23:28;;;;;;;;;;;;;;;21.43;76.11;102806.84;7283820;19;152892;-49
2021/08/24 10:25:57;;;;;;;;;;;;;;;21.45;76.15;102799.00;7282697;19;153214;-49
2021/08/24 10:28:25;;;;;;;;;;;;;;;21.44;76.57;102792.50;7285872;19;152355;-49
2021/08/24 10:30:56;;;;;;;;;;;;;;;21.45;76.03;102799.84;7285538;19;152134;-49
2021/08/24 10:33:25;;;;;;;;;;;;;;;21.44;76.00;102789.69;7283243;19;153061;-50
2021/08/24 10:35:57;;;;;;;;;;;;;;;21.49;74.66;102791.69;7286268;19;152746;-50
2021/08/24 10:38:26;;;;;;;;;;;;;;;21.52;74.64;102786.41;7282266;19;152501;-49
2021/08/24 10:40:53;;;;;;;;;;;;;;;21.58;74.25;102785.31;7293633;19;152309;-50
2021/08/24 10:43:21;;;;;;;;;;;;;;;21.63;74.59;102788.16;7284105;19;151860;-49
2021/08/24 10:45:50;;;;;;;;;;;;;;;21.68;74.55;102792.97;7280965;19;153172;-50
2021/08/24 10:48:19;;;;;;;;;;;;;;;21.72;74.78;102785.66;7285349;19;152190;-50
2021/08/24 10:50:57;;;;;;;;;;;;;;;21.70;74.82;102785.13;7282998;19;152296;-50
2021/08/24 10:53:26;;;;;;;;;;;;;;;21.69;75.04;102787.06;7281026;19;153833;-49
2021/08/24 10:55:57;;;;;;;;;;;;;;;21.72;74.86;102780.91;7286300;19;153743;-49
2021/08/24 10:58:31;;;;;;;;;;;;;;;21.77;74.51;102782.91;7280591;19;152687;-49
2021/08/24 11:01:01;;;;;;;;;;;;;;;21.80;74.51;102787.16;7283741;19;153068;-49
2021/08/24 11:03:35;;;;;;;;;;;;;;;21.84;74.77;102791.97;7289135;19;152666;-49
2021/08/24 11:06:05;;;;;;;;;;;;;;;21.83;74.69;102787.44;7280405;19;153304;-49
2021/08/24 11:08:52;;;;;;;;;;;;;;;21.84;74.79;102782.66;7281028;19;152594;-49
2021/08/24 11:11:22;;;;;;;;;;;;;;;21.89;74.16;102777.91;7283559;19;152740;-49
2021/08/24 11:13:52;;;;;;;;;;;;;;;21.97;74.40;102773.75;7285035;19;153276;-49
2021/08/24 11:16:31;;;;;;;;;;;;;;;21.98;74.61;102769.84;7282428;19;153815;-49
2021/08/24 11:19:01;;;;;;;;;;;;;;;22.03;73.98;102770.69;7286242;19;152052;-50
2021/08/24 11:21:34;;;;;;;;;;;;;;;22.10;74.16;102764.81;7286997;19;152762;-50
2021/08/24 11:24:09;;;;;;;;;;;;;;;22.06;74.46;102767.34;7283542;19;153241;-50
2021/08/24 11:26:42;;;;;;;;;;;;;;;22.06;74.34;102769.31;7290928;19;152663;-49
2021/08/24 11:29:18;;;;;;;;;;;;;;;22.09;74.16;102774.38;7284760;19;153972;-49
2021/08/24 11:31:47;;;;;;;;;;;;;;;22.12;74.12;102759.75;7284897;19;152054;-49
2021/08/24 11:34:21;;;;;;;;;;;;;;;22.14;76.64;102761.16;7285263;19;152201;-49
2021/08/24 11:36:52;;;;;;;;;;;;;;;22.15;76.11;102762.03;7283387;19;154129;-49
2021/08/24 11:39:21;;;;;;;;;;;;;;;22.14;76.54;102765.94;7285603;19;151837;-49
2021/08/24 11:41:50;;;;;;;;;;;;;;;22.20;76.98;102764.00;7282944;19;153655;-49
2021/08/24 11:44:21;;;;;;;;;;;;;;;22.16;77.23;102758.94;7279090;19;154238;-49
2021/08/24 11:46:54;;;;;;;;;;;;;;;22.16;77.29;102763.72;7286064;19;152207;-49
2021/08/24 11:49:24;;;;;;;;;;;;;;;22.15;77.82;102751.59;7279960;19;154072;-49
2021/08/24 11:51:58;;;;;;;;;;;;;;;22.20;77.69;102756.41;7281533;19;152784;-49
2021/08/24 11:54:37;;;;;;;;;;;;;;;22.23;77.25;102744.59;7283681;19;152582;-50
2021/08/24 11:57:08;;;;;;;;;;;;;;;22.25;77.37;102747.13;7280400;19;154448;-49
2021/08/24 11:59:40;;;;;;;;;;;;;;;22.26;78.03;102741.19;7284926;19;152221;-49
2021/08/24 12:02:13;;;;;;;;;;;;;;;22.28;77.82;102744.59;7281967;19;153173;-50
2021/08/24 12:04:41;;;;;;;;;;;;;;;22.26;77.43;102741.19;7282786;19;153703;-49
2021/08/24 12:07:12;;;;;;;;;;;;;;;22.30;77.78;102730.25;7278466;19;151903;-48
2021/08/24 12:09:41;;;;;;;;;;;;;;;22.27;77.69;102734.47;7292295;19;154431;-49
2021/08/24 12:12:10;;;;;;;;;;;;;;;22.25;77.46;102728.28;7281749;19;151723;-48
2021/08/24 12:14:46;;;;;;;;;;;;;;;22.28;77.92;102733.34;7281304;19;155935;-49
2021/08/24 12:17:27;;;;;;;;;;;;;;;22.31;77.35;102732.78;7280376;19;153278;-49
2021/08/24 12:19:56;;;;;;;;;;;;;;;22.33;77.73;102727.72;7284272;19;152268;-49
2021/08/24 12:22:43;;;;;;;;;;;;;;;22.32;77.05;102728.84;7281520;19;152871;-49
2021/08/24 12:25:12;;;;;;;;;;;;;;;22.34;77.57;102720.97;7281947;19;153291;-49
2021/08/24 12:27:44;;;;;;;;;;;;;;;22.36;77.44;102712.22;7283704;19;152534;-49
2021/08/24 12:30:14;;;;;;;;;;;;;;;22.36;77.53;102709.41;7282807;19;153160;-49
2021/08/24 12:33:00;;;;;;;;;;;;;;;22.39;76.95;102712.53;7289064;19;153632;-49
2021/08/24 12:35:31;;;;;;;;;;;;;;;22.41;77.21;102700.97;7283205;19;153817;-49